Time;durP1;ratioP1;P1;durP2;ratioP2;P2;SDS_P1;SDS_P2;PMS_P1;PMS_P2;Temp;Humidity;BMP_temperature;BMP_pressure;BME280_temperature;BME280_humidity;BME280_pressure;Samples;Min_cycle;Max_cycle;Signal;HPM_P1;HPM_P2
2021/05/06 00:06:45;;;;;;;19.52;12.93;;;4.10;99.90;;;;;;4146705;28;20049;-81
2021/05/06 00:08:27;;;;;;;18.63;11.63;;;4.00;99.90;;;;;;4146134;28;20049;-80
2021/05/06 00:33:08;;;;;;;22.73;16.02;;;4.10;99.90;;;;;;4147399;28;20037;-81
2021/05/06 00:35:09;;;;;;;21.35;15.95;;;4.10;99.90;;;;;;4147461;28;20033;-80
2021/05/06 00:37:14;;;;;;;23.13;16.02;;;4.10;99.90;;;;;;4145842;28;20026;-79
2021/05/06 00:39:19;;;;;;;22.15;16.33;;;4.10;99.90;;;;;;4178881;28;20049;-80
2021/05/06 00:55:17;;;;;;;22.30;16.38;;;3.80;99.90;;;;;;4145587;28;20041;-80
2021/05/06 01:04:02;;;;;;;29.80;19.05;;;3.80;99.90;;;;;;4145291;28;20111;-79
2021/05/06 01:06:08;;;;;;;27.60;17.55;;;3.80;99.90;;;;;;4137793;28;20034;-82
2021/05/06 01:10:42;;;;;;;22.60;17.10;;;3.80;99.90;;;;;;4144595;28;20044;-81
2021/05/06 01:12:46;;;;;;;25.15;17.77;;;3.90;99.90;;;;;;4146217;28;20034;-81
2021/05/06 01:14:46;;;;;;;31.15;18.95;;;3.80;99.90;;;;;;4150393;28;20562;-81
2021/05/06 01:16:47;;;;;;;29.02;18.80;;;3.80;99.90;;;;;;4143875;28;20171;-82
2021/05/06 01:18:49;;;;;;;28.45;18.52;;;3.80;99.90;;;;;;4146218;28;20036;-81
2021/05/06 01:20:56;;;;;;;29.85;19.25;;;3.80;99.90;;;;;;4135034;28;20033;-81
2021/05/06 01:22:56;;;;;;;27.23;18.85;;;3.80;99.90;;;;;;4146072;28;20041;-81
2021/05/06 01:24:59;;;;;;;32.25;20.63;;;3.80;99.90;;;;;;4145486;28;20062;-81
2021/05/06 01:27:16;;;;;;;35.70;21.42;;;3.90;99.90;;;;;;4158695;28;20037;-80
2021/05/06 01:29:23;;;;;;;31.80;20.50;;;3.90;99.90;;;;;;4147415;28;20085;-81
2021/05/06 01:31:30;;;;;;;28.33;19.95;;;3.90;99.90;;;;;;4145810;28;20029;-81
2021/05/06 01:34:20;;;;;;;35.58;22.00;;;3.90;99.90;;;;;;4134971;28;20034;-81
2021/05/06 01:40:33;;;;;;;34.10;22.65;;;3.90;99.90;;;;;;4148321;28;20034;-81
2021/05/06 01:42:40;;;;;;;37.60;23.88;;;3.90;99.90;;;;;;4149666;28;20385;-81
2021/05/06 01:49:45;;;;;;;39.63;24.85;;;3.80;99.90;;;;;;4149502;28;20044;-80
2021/05/06 02:01:04;;;;;;;36.45;22.77;;;3.70;99.90;;;;;;4148351;28;20037;-82
2021/05/06 02:03:05;;;;;;;45.47;26.17;;;3.70;99.90;;;;;;4149082;28;20033;-81
2021/05/06 02:05:07;;;;;;;41.50;25.50;;;3.70;99.90;;;;;;4149552;28;20049;-81
2021/05/06 02:07:08;;;;;;;41.35;24.95;;;3.70;99.90;;;;;;4147657;28;20026;-80
2021/05/06 02:09:08;;;;;;;44.03;25.95;;;3.70;99.90;;;;;;4147976;28;20052;-81
2021/05/06 02:11:09;;;;;;;45.10;26.42;;;3.70;99.90;;;;;;4147856;28;20037;-80
2021/05/06 02:13:10;;;;;;;40.85;24.48;;;3.60;99.90;;;;;;4131652;28;20022;-80
2021/05/06 02:15:26;;;;;;;46.53;27.30;;;3.60;99.90;;;;;;4149515;28;20022;-82
2021/05/06 02:17:27;;;;;;;50.03;26.08;;;3.50;99.90;;;;;;4148270;28;20543;-80
2021/05/06 02:19:33;;;;;;;46.38;27.08;;;3.40;99.90;;;;;;4149126;28;20049;-82
2021/05/06 02:21:34;;;;;;;55.00;29.15;;;3.20;99.90;;;;;;4148432;28;20034;-80
2021/05/06 02:23:36;;;;;;;52.97;29.10;;;3.20;99.90;;;;;;4164577;28;20040;-81
2021/05/06 02:25:37;;;;;;;52.78;29.23;;;3.20;99.90;;;;;;4147881;28;20038;-81
2021/05/06 02:27:38;;;;;;;53.83;27.90;;;3.10;99.90;;;;;;4131682;28;20486;-82
2021/05/06 02:29:42;;;;;;;47.83;27.25;;;3.10;99.90;;;;;;4148923;28;20132;-81
2021/05/06 02:31:43;;;;;;;59.55;28.42;;;3.00;99.90;;;;;;4147797;28;20120;-82
2021/05/06 02:33:44;;;;;;;51.30;27.60;;;2.90;99.90;;;;;;4149178;28;20049;-81
2021/05/06 02:35:45;;;;;;;50.40;26.90;;;2.90;99.90;;;;;;4147806;28;20054;-81
2021/05/06 02:37:46;;;;;;;54.33;29.30;;;2.90;99.90;;;;;;4147751;28;20132;-82
2021/05/06 02:39:47;;;;;;;48.95;27.85;;;2.80;99.90;;;;;;4147481;28;20042;-80
2021/05/06 02:41:48;;;;;;;63.10;30.02;;;2.80;99.90;;;;;;4147771;28;20052;-81
2021/05/06 02:43:50;;;;;;;59.90;29.77;;;2.70;99.90;;;;;;4131177;28;20046;-81
2021/05/06 02:45:50;;;;;;;61.47;29.88;;;2.70;99.90;;;;;;4147305;28;20050;-81
2021/05/06 02:47:52;;;;;;;59.40;29.40;;;2.70;99.90;;;;;;4147397;28;20536;-81
2021/05/06 02:50:04;;;;;;;65.18;31.42;;;2.70;99.90;;;;;;4146564;28;20042;-81
2021/05/06 02:52:09;;;;;;;61.35;30.33;;;2.60;99.90;;;;;;4150426;28;20029;-81
2021/05/06 02:54:10;;;;;;;59.85;28.98;;;2.50;99.90;;;;;;4163832;28;20396;-81
2021/05/06 02:56:37;;;;;;;57.15;28.00;;;2.50;99.90;;;;;;4141418;28;20048;-80
2021/05/06 03:03:07;;;;;;;52.35;27.45;;;2.30;99.90;;;;;;4145866;28;20065;-80
2021/05/06 03:05:09;;;;;;;59.30;28.55;;;2.30;99.90;;;;;;4146005;28;20042;-80
2021/05/06 03:07:12;;;;;;;58.20;27.85;;;2.30;99.90;;;;;;4147223;28;20036;-80
2021/05/06 03:09:29;;;;;;;63.17;27.05;;;2.20;99.90;;;;;;4145990;28;20535;-80
2021/05/06 03:11:56;;;;;;;57.28;25.08;;;2.10;99.90;;;;;;4146308;28;20049;-82
2021/05/06 03:23:00;;;;;;;62.50;26.17;;;1.80;99.90;;;;;;4146438;28;20393;-81
2021/05/06 03:25:06;;;;;;;58.83;28.25;;;1.70;99.90;;;;;;4145011;28;20044;-81
2021/05/06 03:27:10;;;;;;;64.72;31.45;;;1.80;99.90;;;;;;4178443;28;20044;-81
2021/05/06 03:29:15;;;;;;;73.60;32.65;;;1.80;99.90;;;;;;4162949;28;20038;-81
2021/05/06 04:26:53;;;;;;;102.00;40.35;;;2.30;99.90;;;;;;4146068;28;20092;-81
2021/05/06 04:35:26;;;;;;;99.80;42.22;;;2.50;99.90;;;;;;4142271;28;20049;-80
2021/05/06 04:36:10;;;;;;;108.05;41.20;;;2.60;99.90;;;;;;4143918;28;20045;-81
2021/05/06 04:38:13;;;;;;;116.00;46.28;;;2.70;99.90;;;;;;4147289;28;20022;-80
2021/05/06 04:50:16;;;;;;;133.40;48.88;;;3.10;99.90;;;;;;4147178;28;20137;-80
2021/05/06 04:55:52;;;;;;;136.40;53.70;;;3.50;99.90;;;;;;4145770;28;20086;-82
2021/05/06 05:04:37;;;;;;;150.32;61.72;;;3.90;99.90;;;;;;4145122;28;20412;-81
2021/05/06 05:06:42;;;;;;;159.48;59.55;;;3.90;99.90;;;;;;4144496;28;20034;-81
2021/05/06 05:08:51;;;;;;;166.60;61.42;;;4.00;99.90;;;;;;4144709;28;20404;-81
2021/05/06 05:11:16;;;;;;;173.98;61.13;;;4.10;99.90;;;;;;4144853;28;20080;-81
2021/05/06 05:13:28;;;;;;;164.45;62.05;;;4.10;99.90;;;;;;4146375;28;20042;-81
2021/05/06 05:26:42;;;;;;;159.60;60.88;;;4.00;99.90;;;;;;4148989;28;20034;-82
2021/05/06 05:28:43;;;;;;;154.32;58.60;;;4.10;99.90;;;;;;4148966;28;20470;-82
2021/05/06 05:30:44;;;;;;;170.90;60.33;;;4.10;99.90;;;;;;4148923;28;20096;-82
2021/05/06 05:32:46;;;;;;;170.38;57.30;;;4.10;99.90;;;;;;4164535;28;20111;-81
2021/05/06 05:35:13;;;;;;;145.55;55.60;;;4.00;99.90;;;;;;4132276;28;20495;-80
2021/05/06 05:37:15;;;;;;;142.60;59.33;;;4.10;99.90;;;;;;4155068;28;20022;-80
2021/05/06 05:39:25;;;;;;;155.27;57.88;;;4.10;99.90;;;;;;4148704;28;20096;-81
2021/05/06 05:55:09;;;;;;;149.18;53.20;;;4.70;99.90;;;;;;4148328;28;20033;-83
2021/05/06 05:57:09;;;;;;;152.35;59.30;;;4.90;99.90;;;;;;4148118;28;20331;-81
2021/05/06 05:59:10;;;;;;;169.43;64.53;;;5.10;99.90;;;;;;4181065;28;20166;-81
2021/05/06 06:01:11;;;;;;;167.13;63.35;;;5.20;99.90;;;;;;4131830;28;20125;-80
2021/05/06 06:03:12;;;;;;;167.85;66.63;;;5.40;99.90;;;;;;4141549;28;20061;-81
2021/05/06 06:05:14;;;;;;;176.32;67.85;;;5.50;99.90;;;;;;4132526;28;20181;-81
2021/05/06 06:07:14;;;;;;;168.68;68.32;;;5.70;99.90;;;;;;4157942;28;20091;-80
2021/05/06 06:09:15;;;;;;;150.57;63.45;;;5.70;99.90;;;;;;4121662;28;20034;-81
2021/05/06 06:11:17;;;;;;;142.52;59.40;;;5.70;99.90;;;;;;4144197;28;20113;-80
2021/05/06 06:13:18;;;;;;;143.85;59.10;;;5.70;99.90;;;;;;4158183;28;20080;-75
2021/05/06 06:15:33;;;;;;;141.20;55.75;;;5.60;99.90;;;;;;4145472;28;20497;-75
2021/05/06 06:17:42;;;;;;;126.00;55.72;;;5.60;99.90;;;;;;4147547;28;20421;-77
2021/05/06 06:19:49;;;;;;;124.18;53.60;;;5.60;99.90;;;;;;4148934;28;20512;-76
2021/05/06 06:21:53;;;;;;;122.35;53.30;;;5.60;99.90;;;;;;4163909;28;20087;-76
2021/05/06 06:23:54;;;;;;;119.30;54.65;;;5.70;99.90;;;;;;4147797;28;20044;-76
2021/05/06 06:25:56;;;;;;;120.15;56.10;;;5.80;99.90;;;;;;4146912;28;20125;-76
2021/05/06 06:27:57;;;;;;;120.05;53.03;;;5.80;99.90;;;;;;4163625;28;20032;-75
2021/05/06 06:29:59;;;;;;;105.88;50.15;;;5.80;99.90;;;;;;4147694;28;20034;-75
2021/05/06 06:32:02;;;;;;;101.82;46.75;;;5.80;99.90;;;;;;4162041;28;20041;-76
2021/05/06 06:34:04;;;;;;;95.40;47.45;;;5.80;99.90;;;;;;4147347;28;20038;-75
2021/05/06 06:36:06;;;;;;;85.10;43.63;;;5.80;99.90;;;;;;4129130;28;20041;-75
2021/05/06 06:38:07;;;;;;;76.63;39.28;;;5.80;99.90;;;;;;4155844;28;20103;-76
2021/05/06 06:40:10;;;;;;;79.97;40.35;;;5.80;99.90;;;;;;4138358;28;20083;-75
2021/05/06 06:42:11;;;;;;;70.10;38.47;;;5.80;99.90;;;;;;4141836;28;20490;-75
2021/05/06 06:44:16;;;;;;;71.72;39.35;;;5.80;99.90;;;;;;4164790;28;20088;-75
2021/05/06 06:46:17;;;;;;;70.28;39.53;;;5.80;99.90;;;;;;4138168;28;20157;-75
2021/05/06 06:48:17;;;;;;;62.28;36.78;;;5.80;99.90;;;;;;4130599;28;20449;-75
2021/05/06 06:50:19;;;;;;;64.95;34.15;;;5.90;99.90;;;;;;4146632;28;20041;-75
2021/05/06 06:52:20;;;;;;;57.17;31.52;;;5.90;99.90;;;;;;4131373;28;20071;-75
2021/05/06 06:54:23;;;;;;;51.03;31.75;;;6.00;99.90;;;;;;4130326;28;20046;-75
2021/05/06 06:56:24;;;;;;;51.72;32.50;;;6.10;99.90;;;;;;4141565;28;20053;-75
2021/05/06 06:58:24;;;;;;;55.72;32.08;;;6.10;99.90;;;;;;4146310;28;20491;-75
2021/05/06 07:00:25;;;;;;;53.35;33.83;;;6.10;99.90;;;;;;4146896;28;20057;-75
2021/05/06 07:02:26;;;;;;;48.83;29.40;;;6.10;99.90;;;;;;4146600;28;20030;-74
2021/05/06 07:04:28;;;;;;;54.63;31.55;;;6.20;99.90;;;;;;4146710;28;20064;-75
2021/05/06 07:06:29;;;;;;;54.28;32.67;;;6.20;99.90;;;;;;4179846;28;20041;-76
2021/05/06 07:08:33;;;;;;;45.97;31.13;;;6.30;99.90;;;;;;4141708;28;20061;-75
2021/05/06 07:10:34;;;;;;;44.50;29.17;;;6.40;99.90;;;;;;4146215;28;20036;-76
2021/05/06 07:12:35;;;;;;;48.55;32.47;;;6.50;99.90;;;;;;4138238;28;20033;-75
2021/05/06 07:14:38;;;;;;;48.13;32.65;;;6.60;99.90;;;;;;4143138;28;20033;-74
2021/05/06 07:16:38;;;;;;;51.80;34.08;;;6.70;99.90;;;;;;4143260;28;20038;-75
2021/05/06 07:18:39;;;;;;;43.13;32.83;;;6.80;99.90;;;;;;4140969;28;20790;-74
2021/05/06 07:20:42;;;;;;;52.53;36.80;;;7.00;99.90;;;;;;4146558;28;20034;-75
2021/05/06 07:22:43;;;;;;;50.35;35.72;;;7.20;99.90;;;;;;4146701;28;20521;-75
2021/05/06 07:24:44;;;;;;;42.78;32.78;;;7.40;99.90;;;;;;4169517;28;20032;-75
2021/05/06 07:26:45;;;;;;;39.35;28.25;;;7.60;99.90;;;;;;4137398;28;20049;-75
2021/05/06 07:28:47;;;;;;;37.03;27.60;;;7.60;99.90;;;;;;4145221;28;20096;-75
2021/05/06 07:30:50;;;;;;;30.90;26.45;;;7.60;99.90;;;;;;4147014;28;20037;-76
2021/05/06 07:32:51;;;;;;;35.13;28.83;;;7.50;99.90;;;;;;4144806;28;20065;-74
2021/05/06 07:34:52;;;;;;;32.28;28.95;;;7.50;99.90;;;;;;4142152;28;20040;-74
2021/05/06 07:36:53;;;;;;;27.55;24.77;;;7.60;99.90;;;;;;4145524;28;20034;-74
2021/05/06 07:38:53;;;;;;;24.20;21.70;;;8.00;99.90;;;;;;4145802;28;20044;-73
2021/05/06 07:40:56;;;;;;;21.30;18.95;;;8.30;99.90;;;;;;4140422;28;20406;-74
2021/05/06 07:42:56;;;;;;;18.80;16.85;;;8.60;99.90;;;;;;4130227;28;20049;-74
2021/05/06 07:44:57;;;;;;;19.90;17.25;;;8.70;99.90;;;;;;4145524;28;20129;-75
2021/05/06 07:47:09;;;;;;;17.92;15.98;;;8.60;99.90;;;;;;4144116;28;20056;-74
2021/05/06 07:49:10;;;;;;;18.80;16.90;;;8.60;99.90;;;;;;4142457;28;20034;-76
2021/05/06 07:51:10;;;;;;;16.30;14.60;;;8.60;99.90;;;;;;4145634;28;20573;-73
2021/05/06 07:53:13;;;;;;;17.67;15.95;;;8.70;99.90;;;;;;4144817;28;20046;-73
2021/05/06 07:55:14;;;;;;;17.33;15.27;;;8.70;99.90;;;;;;4138460;28;20448;-75
2021/05/06 07:57:14;;;;;;;17.35;15.32;;;8.80;99.90;;;;;;4142834;28;20026;-73
2021/05/06 07:59:15;;;;;;;15.35;13.85;;;8.90;99.90;;;;;;4143871;28;20037;-75
2021/05/06 08:01:16;;;;;;;15.55;13.77;;;8.90;99.90;;;;;;4159047;28;20493;-75
2021/05/06 08:03:16;;;;;;;15.52;14.13;;;9.10;99.90;;;;;;4159586;28;20507;-74
2021/05/06 08:05:17;;;;;;;16.77;15.15;;;9.30;99.90;;;;;;4140279;28;20211;-73
2021/05/06 08:07:18;;;;;;;17.85;15.50;;;9.30;99.90;;;;;;4145225;28;20034;-75
2021/05/06 08:09:19;;;;;;;15.27;13.88;;;9.30;99.90;;;;;;4145139;28;20433;-75
2021/05/06 08:11:21;;;;;;;16.55;14.95;;;9.40;99.90;;;;;;4147365;28;20085;-74
2021/05/06 08:13:28;;;;;;;15.85;14.25;;;9.40;99.90;;;;;;4146196;28;20038;-74
2021/05/06 08:15:30;;;;;;;16.15;14.45;;;9.30;99.90;;;;;;4129761;28;20027;-74
2021/05/06 08:17:31;;;;;;;15.02;13.63;;;9.50;99.90;;;;;;4145584;28;20100;-74
2021/05/06 08:19:32;;;;;;;16.20;13.02;;;9.80;99.90;;;;;;4161952;28;20033;-75
2021/05/06 08:21:33;;;;;;;15.23;12.30;;;10.00;99.90;;;;;;4146751;28;20034;-74
2021/05/06 08:23:34;;;;;;;13.85;11.93;;;10.20;99.90;;;;;;4145698;28;20592;-74
2021/05/06 08:25:37;;;;;;;12.60;11.30;;;10.30;99.90;;;;;;4138576;28;20053;-75
2021/05/06 08:27:41;;;;;;;11.82;10.63;;;10.30;99.90;;;;;;4143368;28;20071;-75
2021/05/06 08:29:42;;;;;;;15.23;12.75;;;10.30;99.90;;;;;;4154971;28;20493;-74
2021/05/06 08:31:42;;;;;;;15.25;13.63;;;10.10;99.90;;;;;;4146200;28;20037;-74
2021/05/06 08:33:43;;;;;;;14.70;13.20;;;10.00;99.90;;;;;;4144390;28;20109;-75
2021/05/06 08:35:44;;;;;;;15.32;13.75;;;9.90;99.90;;;;;;4160794;28;20365;-74
2021/05/06 08:37:45;;;;;;;17.52;14.32;;;10.00;99.90;;;;;;4145937;28;20354;-73
2021/05/06 08:39:45;;;;;;;16.33;14.63;;;9.90;99.90;;;;;;4144582;28;20544;-75
2021/05/06 08:41:46;;;;;;;18.45;15.55;;;9.70;99.90;;;;;;4145722;28;20084;-74
2021/05/06 08:43:56;;;;;;;17.75;15.88;;;9.40;99.90;;;;;;4128371;28;20102;-73
2021/05/06 08:45:58;;;;;;;20.38;16.98;;;9.20;99.90;;;;;;4140629;28;20501;-74
2021/05/06 08:47:59;;;;;;;20.05;16.05;;;9.10;99.90;;;;;;4144931;28;20033;-75
2021/05/06 08:50:01;;;;;;;17.38;15.60;;;9.40;99.90;;;;;;4145154;28;20054;-72
2021/05/06 08:52:09;;;;;;;13.57;12.15;;;10.00;99.90;;;;;;4143828;28;20026;-74
2021/05/06 08:54:10;;;;;;;12.35;11.02;;;10.50;99.90;;;;;;4158609;28;20513;-73
2021/05/06 08:56:11;;;;;;;16.52;14.82;;;10.70;99.90;;;;;;4146291;28;20045;-73
2021/05/06 08:58:12;;;;;;;16.38;14.27;;;10.80;99.90;;;;;;4145261;28;20502;-73
2021/05/06 09:00:15;;;;;;;15.70;14.10;;;10.60;99.90;;;;;;4147786;28;20493;-73
2021/05/06 09:02:16;;;;;;;14.05;12.45;;;10.70;99.90;;;;;;4138915;28;20148;-74
2021/05/06 09:04:18;;;;;;;13.85;12.05;;;10.90;99.90;;;;;;4171444;28;20452;-74
2021/05/06 09:06:20;;;;;;;17.02;13.93;;;10.90;99.90;;;;;;4145132;28;20125;-74
2021/05/06 09:08:35;;;;;;;13.45;12.15;;;11.00;99.90;;;;;;4143577;28;20042;-74
2021/05/06 09:10:40;;;;;;;16.77;12.85;;;11.50;99.90;;;;;;4160382;28;20159;-74
2021/05/06 09:12:41;;;;;;;13.20;10.90;;;13.60;99.90;;;;;;4128557;28;20035;-74
2021/05/06 09:14:45;;;;;;;11.82;10.63;;;12.30;99.90;;;;;;4146047;28;20049;-74
2021/05/06 09:16:46;;;;;;;11.82;10.68;;;12.00;99.90;;;;;;4128226;28;20082;-74
2021/05/06 09:18:47;;;;;;;13.30;11.90;;;11.40;99.90;;;;;;4145889;28;20041;-74
2021/05/06 09:20:48;;;;;;;13.60;12.15;;;11.20;99.90;;;;;;4144334;28;20060;-73
2021/05/06 09:23:00;;;;;;;12.50;11.25;;;11.20;99.90;;;;;;4128488;28;20031;-74
2021/05/06 09:25:34;;;;;;;15.10;13.43;;;11.30;99.90;;;;;;4161013;28;20030;-75
2021/05/06 09:27:35;;;;;;;12.70;11.18;;;11.40;99.90;;;;;;4144334;28;20125;-74
2021/05/06 09:29:41;;;;;;;12.55;11.30;;;11.60;99.90;;;;;;4161342;28;20128;-74
2021/05/06 09:31:42;;;;;;;12.50;11.18;;;11.70;99.90;;;;;;4156092;28;20608;-73
2021/05/06 09:33:49;;;;;;;14.95;11.48;;;12.10;99.90;;;;;;4137148;28;20030;-73
2021/05/06 09:35:50;;;;;;;13.88;12.25;;;12.00;99.90;;;;;;4144510;28;20037;-73
2021/05/06 09:37:50;;;;;;;15.77;12.48;;;11.80;99.90;;;;;;4145930;28;20037;-73
2021/05/06 09:40:01;;;;;;;13.98;12.48;;;11.90;99.90;;;;;;4160987;28;20365;-73
2021/05/06 09:42:08;;;;;;;12.35;11.13;;;12.30;99.90;;;;;;4158608;28;20139;-74
2021/05/06 09:44:20;;;;;;;12.23;10.93;;;12.70;99.90;;;;;;4151287;28;20417;-73
2021/05/06 09:46:43;;;;;;;12.50;11.25;;;13.20;99.90;;;;;;4144744;28;20417;-73
2021/05/06 09:48:43;;;;;;;11.98;10.15;;;13.80;99.90;;;;;;4144674;28;20038;-73
2021/05/06 09:51:07;;;;;;;10.57;9.48;;;13.70;99.90;;;;;;4144525;28;20393;-73
2021/05/06 09:53:18;;;;;;;12.73;10.25;;;13.00;99.90;;;;;;4143745;28;20030;-73
2021/05/06 09:55:19;;;;;;;12.48;10.55;;;12.50;99.90;;;;;;4144853;28;20510;-75
2021/05/06 09:57:30;;;;;;;13.25;10.18;;;12.40;99.90;;;;;;4144814;28;20477;-74
2021/05/06 09:59:36;;;;;;;14.45;11.05;;;12.70;99.90;;;;;;4162919;28;20029;-74
2021/05/06 10:01:40;;;;;;;12.35;10.98;;;13.40;99.90;;;;;;4180019;28;20029;-75
2021/05/06 10:03:41;;;;;;;16.45;11.13;;;13.70;99.90;;;;;;4147683;28;20022;-74
2021/05/06 10:05:44;;;;;;;13.43;12.13;;;14.30;99.90;;;;;;4179869;28;20041;-74
2021/05/06 10:07:53;;;;;;;11.23;10.13;;;14.60;99.90;;;;;;4163854;28;20152;-74
2021/05/06 10:10:01;;;;;;;13.40;10.88;;;14.50;99.90;;;;;;4147031;28;20071;-75
2021/05/06 10:12:03;;;;;;;12.07;10.45;;;14.60;99.90;;;;;;4148329;28;20032;-76
2021/05/06 10:14:05;;;;;;;12.00;10.80;;;14.70;99.90;;;;;;4163552;28;20100;-75
2021/05/06 10:16:11;;;;;;;12.27;11.07;;;14.80;99.90;;;;;;4130571;28;20034;-73
2021/05/06 10:18:12;;;;;;;11.98;10.73;;;14.70;99.90;;;;;;4131547;28;20042;-74
2021/05/06 10:20:12;;;;;;;12.57;11.27;;;14.40;99.90;;;;;;4146789;28;20030;-74
2021/05/06 10:22:17;;;;;;;14.75;10.18;;;14.30;99.90;;;;;;4162787;28;20500;-73
2021/05/06 10:24:18;;;;;;;11.75;9.95;;;14.70;99.90;;;;;;4146791;28;20424;-73
2021/05/06 10:26:20;;;;;;;14.43;12.93;;;15.40;99.90;;;;;;4162911;28;20050;-75
2021/05/06 10:28:22;;;;;;;13.20;10.02;;;15.60;99.90;;;;;;4147466;28;20037;-74
2021/05/06 10:30:24;;;;;;;12.85;11.55;;;15.20;99.90;;;;;;4147028;28;20036;-74
2021/05/06 10:32:28;;;;;;;14.23;12.82;;;14.40;99.90;;;;;;4146608;28;20378;-74
2021/05/06 10:34:34;;;;;;;16.88;12.80;;;13.60;99.90;;;;;;4163290;28;20041;-74
2021/05/06 10:36:35;;;;;;;14.68;13.18;;;13.30;99.90;;;;;;4143778;28;20037;-74
2021/05/06 10:38:39;;;;;;;12.93;10.45;;;13.00;99.90;;;;;;4147131;28;20433;-74
2021/05/06 10:40:41;;;;;;;12.38;11.00;;;13.20;99.90;;;;;;4163062;28;20554;-74
2021/05/06 10:42:42;;;;;;;13.07;11.55;;;13.30;99.90;;;;;;4146761;28;20072;-73
2021/05/06 10:44:43;;;;;;;13.40;11.10;;;13.40;99.90;;;;;;4144714;28;20034;-74
2021/05/06 10:47:02;;;;;;;15.57;10.52;;;13.40;99.90;;;;;;4146957;28;20133;-73
2021/05/06 10:49:03;;;;;;;9.70;7.70;;;13.90;99.90;;;;;;4145037;28;20401;-73
2021/05/06 10:51:27;;;;;;;8.60;7.25;;;14.40;99.90;;;;;;4146745;28;20037;-74
2021/05/06 10:53:29;;;;;;;9.25;8.38;;;14.90;99.90;;;;;;4138128;28;20432;-74
2021/05/06 10:55:46;;;;;;;9.75;8.75;;;15.70;99.90;;;;;;4145320;28;20505;-73
2021/05/06 10:57:47;;;;;;;9.50;8.52;;;16.00;99.90;;;;;;4140143;28;20041;-73
2021/05/06 10:59:48;;;;;;;9.88;8.75;;;15.40;99.90;;;;;;4142564;28;20029;-73
2021/05/06 11:01:49;;;;;;;8.45;7.65;;;14.70;99.90;;;;;;4178313;28;20106;-78
2021/05/06 11:04:07;;;;;;;8.48;7.35;;;14.20;99.90;;;;;;4139272;28;20043;-78
2021/05/06 11:06:32;;;;;;;9.25;8.10;;;13.80;99.90;;;;;;4146752;28;20067;-78
2021/05/06 11:08:35;;;;;;;9.00;7.97;;;13.60;99.90;;;;;;4146071;28;20053;-79
2021/05/06 11:10:48;;;;;;;7.10;6.30;;;13.50;99.90;;;;;;4130928;28;20038;-78
2021/05/06 11:12:58;;;;;;;11.18;7.30;;;13.70;99.90;;;;;;4147834;28;20044;-79
2021/05/06 11:15:02;;;;;;;6.25;5.00;;;13.50;99.90;;;;;;4120894;28;20441;-78
2021/05/06 11:17:18;;;;;;;5.50;4.82;;;13.20;99.90;;;;;;4141062;28;20509;-79
2021/05/06 11:19:40;;;;;;;5.05;4.47;;;12.40;99.90;;;;;;4131833;28;20038;-79
2021/05/06 11:21:43;;;;;;;5.68;4.65;;;11.90;99.90;;;;;;4133706;28;20042;-78
2021/05/06 11:23:51;;;;;;;10.75;5.63;;;11.50;99.90;;;;;;4143468;28;20048;-79
2021/05/06 11:26:09;;;;;;;7.40;5.47;;;11.30;99.90;;;;;;4127041;28;20065;-79
2021/05/06 11:28:15;;;;;;;7.25;6.10;;;11.40;99.90;;;;;;4142413;28;20564;-79
2021/05/06 11:30:47;;;;;;;6.10;5.43;;;11.40;99.90;;;;;;4141549;28;20061;-79
2021/05/06 11:32:50;;;;;;;5.53;4.93;;;11.60;99.90;;;;;;4150830;28;20449;-79
2021/05/06 11:34:54;;;;;;;6.72;6.13;;;11.90;99.90;;;;;;4148948;28;20472;-78
2021/05/06 11:37:10;;;;;;;6.28;5.68;;;11.90;99.90;;;;;;4151102;28;20044;-77
2021/05/06 11:39:17;;;;;;;5.68;5.18;;;11.80;99.90;;;;;;4136064;28;20064;-78
2021/05/06 11:41:34;;;;;;;6.22;5.60;;;11.70;99.90;;;;;;4137848;28;20022;-78
2021/05/06 11:43:47;;;;;;;6.60;5.85;;;11.50;99.90;;;;;;4144954;28;20037;-78
2021/05/06 11:45:48;;;;;;;9.93;5.63;;;11.50;99.90;;;;;;4144253;28;20061;-78
2021/05/06 11:47:50;;;;;;;10.40;5.90;;;11.70;99.90;;;;;;4145530;28;20021;-78
2021/05/06 11:49:51;;;;;;;6.35;5.28;;;11.60;99.90;;;;;;4145428;28;20053;-78
2021/05/06 11:51:53;;;;;;;5.97;4.63;;;11.30;99.90;;;;;;4158508;28;20091;-77
2021/05/06 11:54:17;;;;;;;5.75;4.88;;;10.80;99.90;;;;;;4161756;28;20033;-78
2021/05/06 11:56:17;;;;;;;5.45;4.95;;;10.60;99.90;;;;;;4139048;28;20129;-78
2021/05/06 11:58:28;;;;;;;5.60;5.10;;;10.60;99.90;;;;;;4145226;28;20033;-77
2021/05/06 12:00:31;;;;;;;5.22;4.72;;;10.60;99.90;;;;;;4145618;28;20037;-78
2021/05/06 12:02:31;;;;;;;5.68;5.18;;;10.70;99.90;;;;;;4158103;28;20088;-78
2021/05/06 12:04:37;;;;;;;5.70;5.10;;;10.40;99.90;;;;;;4145488;28;20030;-78
2021/05/06 12:06:38;;;;;;;6.75;5.13;;;10.10;99.90;;;;;;4141262;28;20053;-78
2021/05/06 12:08:47;;;;;;;6.90;5.72;;;9.80;99.90;;;;;;4138220;28;20385;-78
2021/05/06 12:10:48;;;;;;;8.98;6.35;;;9.50;99.90;;;;;;4144936;28;20064;-76
2021/05/06 12:13:02;;;;;;;7.43;6.22;;;9.10;99.90;;;;;;4135622;28;20065;-77
2021/05/06 12:15:03;;;;;;;8.32;6.47;;;8.90;99.90;;;;;;4143706;28;20501;-77
2021/05/06 12:17:08;;;;;;;6.90;6.20;;;8.70;99.90;;;;;;4144851;28;20048;-78
2021/05/06 12:19:13;;;;;;;7.80;6.50;;;8.50;99.90;;;;;;4160458;28;20040;-78
2021/05/06 12:21:14;;;;;;;6.13;5.53;;;9.00;99.90;;;;;;4142056;28;20093;-77
2021/05/06 12:23:15;;;;;;;5.60;5.10;;;10.00;99.90;;;;;;4157958;28;20420;-77
2021/05/06 12:25:16;;;;;;;5.13;4.63;;;11.40;99.90;;;;;;4144959;28;20504;-77
2021/05/06 12:27:27;;;;;;;5.80;5.20;;;12.80;99.90;;;;;;4144519;28;20041;-78
2021/05/06 12:29:29;;;;;;;4.82;4.32;;;14.00;99.90;;;;;;4144468;28;20030;-77
2021/05/06 12:31:30;;;;;;;5.93;5.38;;;15.10;99.90;;;;;;4135789;28;20375;-76
2021/05/06 12:33:33;;;;;;;5.80;4.97;;;15.50;99.90;;;;;;4138507;28;20026;-77
2021/05/06 12:35:52;;;;;;;5.93;4.97;;;15.80;99.90;;;;;;4143657;28;20405;-77
2021/05/06 12:37:53;;;;;;;5.25;4.75;;;16.20;99.90;;;;;;4153567;28;20615;-78
2021/05/06 12:39:54;;;;;;;5.57;5.07;;;16.50;99.90;;;;;;4134458;28;20695;-79
2021/05/06 12:41:59;;;;;;;6.43;5.53;;;16.30;99.90;;;;;;4141465;28;20034;-78
2021/05/06 12:44:02;;;;;;;6.05;5.38;;;15.30;99.90;;;;;;4138000;28;20118;-78
2021/05/06 12:46:11;;;;;;;5.65;5.05;;;14.50;99.90;;;;;;4149996;28;20113;-78
2021/05/06 12:48:12;;;;;;;7.25;6.18;;;14.40;99.90;;;;;;4140366;28;20435;-78
2021/05/06 12:50:26;;;;;;;6.13;5.53;;;14.30;99.90;;;;;;4174841;28;20103;-78
2021/05/06 12:52:48;;;;;;;7.55;5.45;;;14.50;99.90;;;;;;4145247;28;20025;-78
2021/05/06 12:54:48;;;;;;;5.95;5.20;;;14.50;99.90;;;;;;4144809;28;20103;-78
2021/05/06 12:56:49;;;;;;;6.10;5.50;;;14.90;99.90;;;;;;4144367;28;20022;-78
2021/05/06 12:58:50;;;;;;;6.32;5.63;;;15.10;99.90;;;;;;4154400;28;20108;-78
2021/05/06 13:00:54;;;;;;;7.47;6.57;;;15.00;99.90;;;;;;4144177;28;20034;-77
2021/05/06 13:03:07;;;;;;;6.75;6.15;;;14.50;99.90;;;;;;4139381;28;20061;-78
2021/05/06 13:05:08;;;;;;;6.30;5.75;;;14.00;99.90;;;;;;4139625;28;20034;-78
2021/05/06 13:07:09;;;;;;;7.05;6.45;;;14.10;99.90;;;;;;4144303;28;20136;-78
2021/05/06 13:09:17;;;;;;;6.82;6.13;;;14.10;99.90;;;;;;4144644;28;20038;-79
2021/05/06 13:11:22;;;;;;;7.20;6.50;;;14.30;99.90;;;;;;4144749;28;20038;-78
2021/05/06 13:13:48;;;;;;;7.47;6.78;;;14.30;99.90;;;;;;4137967;28;20502;-79
2021/05/06 13:15:51;;;;;;;7.65;6.85;;;14.10;99.90;;;;;;4146055;28;20128;-79
2021/05/06 13:17:52;;;;;;;;;;;14.00;99.90;;;;;;4162803;28;20044;-79
2021/05/06 13:19:55;;;;;;;9.50;7.05;;;13.90;99.90;;;;;;4151985;28;20249;-78
2021/05/06 13:22:03;;;;;;;11.65;8.45;;;13.80;99.90;;;;;;4144330;28;20030;-79
2021/05/06 13:24:07;;;;;;;8.68;7.82;;;13.40;99.90;;;;;;4143941;28;20493;-79
2021/05/06 13:26:08;;;;;;;8.38;7.20;;;13.50;99.90;;;;;;4143742;28;20753;-79
2021/05/06 13:28:11;;;;;;;8.57;7.78;;;13.70;99.90;;;;;;4160596;28;20037;-79
2021/05/06 13:30:12;;;;;;;9.80;8.50;;;13.90;99.90;;;;;;4136521;28;20022;-78
2021/05/06 13:32:13;;;;;;;8.73;7.70;;;14.00;99.90;;;;;;4144393;28;20516;-78
2021/05/06 13:34:27;;;;;;;11.32;8.63;;;14.10;99.90;;;;;;4146767;28;20113;-78
2021/05/06 13:36:29;;;;;;;;;;;14.10;99.90;;;;;;4148214;28;20034;-78
2021/05/06 13:39:09;;;;;;;9.05;8.15;;;13.90;99.90;;;;;;4147372;28;19913;-78
2021/05/06 13:41:09;;;;;;;12.02;9.30;;;14.20;99.90;;;;;;4112502;28;20066;-79
2021/05/06 13:43:10;;;;;;;9.10;7.65;;;14.40;99.90;;;;;;4131176;28;20042;-78
2021/05/06 13:45:11;;;;;;;8.57;7.78;;;14.70;99.90;;;;;;4119764;28;20038;-79
2021/05/06 13:47:14;;;;;;;8.93;8.02;;;14.60;99.90;;;;;;4134026;28;20678;-79
2021/05/06 13:49:15;;;;;;;9.23;8.13;;;14.10;99.90;;;;;;4119541;28;20110;-79
2021/05/06 13:51:18;;;;;;;9.25;8.10;;;13.80;99.90;;;;;;4131304;28;20068;-79